createdAt,value
2022-12-05T00:01:27.554Z,6.50
2022-12-05T00:03:57.579Z,6.40
2022-12-05T00:06:26.556Z,6.50
2022-12-05T00:08:53.752Z,6.50
2022-12-05T00:11:24.982Z,6.50
2022-12-05T00:13:54.319Z,6.50
2022-12-05T00:16:25.072Z,6.50
2022-12-05T00:18:52.523Z,6.50
2022-12-05T00:21:26.452Z,6.50
2022-12-05T00:23:55.630Z,6.50
2022-12-05T00:26:22.827Z,6.50
2022-12-05T00:28:50.522Z,6.50
2022-12-05T00:31:21.254Z,6.50
2022-12-05T00:33:49.071Z,6.50
2022-12-05T00:36:26.077Z,6.50
2022-12-05T00:38:53.571Z,6.50
2022-12-05T00:41:24.434Z,6.50
2022-12-05T00:43:51.988Z,6.50
2022-12-05T00:46:23.698Z,6.50
2022-12-05T00:48:52.714Z,6.50
2022-12-05T00:51:32.661Z,6.40
2022-12-05T00:54:02.659Z,6.50
2022-12-05T00:56:31.591Z,6.50
2022-12-05T00:59:00.143Z,6.50
2022-12-05T01:01:37.419Z,6.50
2022-12-05T01:04:32.842Z,6.50
2022-12-05T01:06:59.778Z,6.50
2022-12-05T01:09:27.129Z,6.50
2022-12-05T01:11:54.299Z,6.50
2022-12-05T01:14:24.731Z,6.50
2022-12-05T01:16:55.082Z,6.50
2022-12-05T01:19:28.307Z,6.50
2022-12-05T01:21:55.971Z,6.50
2022-12-05T01:24:23.926Z,6.40
2022-12-05T01:26:51.166Z,6.40
2022-12-05T01:29:21.309Z,6.40
2022-12-05T01:31:48.526Z,6.40
2022-12-05T01:34:17.497Z,6.50
2022-12-05T01:36:45.083Z,6.50
2022-12-05T01:39:13.509Z,6.50
2022-12-05T01:41:48.594Z,6.50
2022-12-05T01:44:15.334Z,6.50
2022-12-05T01:46:51.561Z,6.60
2022-12-05T01:49:28.445Z,6.60
2022-12-05T01:52:20.426Z,6.50
2022-12-05T01:54:51.340Z,6.50
2022-12-05T01:57:18.434Z,6.50
2022-12-05T01:59:50.788Z,6.50
2022-12-05T02:02:18.531Z,6.50
2022-12-05T02:05:08.936Z,6.50
2022-12-05T02:07:39.725Z,6.60
2022-12-05T02:10:07.768Z,6.60
2022-12-05T02:12:35.147Z,6.50
2022-12-05T02:15:19.147Z,6.50
2022-12-05T02:18:22.065Z,6.50
2022-12-05T02:21:33.517Z,6.50
2022-12-05T02:24:33.522Z,6.50
2022-12-05T02:27:25.421Z,6.50
2022-12-05T02:30:03.495Z,6.60
2022-12-05T02:33:00.335Z,6.50
2022-12-05T02:35:46.776Z,6.50
2022-12-05T02:38:37.242Z,6.50
2022-12-05T02:41:14.648Z,6.50
2022-12-05T02:44:33.990Z,6.50
2022-12-05T02:47:01.277Z,6.50
2022-12-05T02:49:33.256Z,6.50
2022-12-05T02:52:03.483Z,6.50
2022-12-05T02:54:38.855Z,6.50
2022-12-05T02:57:08.647Z,6.50
2022-12-05T02:59:35.800Z,6.50
2022-12-05T03:02:02.808Z,6.50
2022-12-05T03:04:31.931Z,6.50
2022-12-05T03:07:01.020Z,6.50
2022-12-05T03:09:37.819Z,6.50
2022-12-05T03:12:14.408Z,6.60
2022-12-05T03:14:50.710Z,6.60
2022-12-05T03:17:25.387Z,6.50
2022-12-05T03:20:05.828Z,6.50
2022-12-05T03:23:09.506Z,6.50
2022-12-05T03:25:57.147Z,6.60
2022-12-05T03:28:31.794Z,6.50
2022-12-05T03:31:08.735Z,6.50
2022-12-05T03:33:43.060Z,6.50
2022-12-05T03:36:18.699Z,6.50
2022-12-05T03:39:08.754Z,6.50
2022-12-05T03:41:47.409Z,6.50
2022-12-05T03:44:31.243Z,6.50
2022-12-05T03:47:28.975Z,6.50
2022-12-05T03:50:05.424Z,6.40
2022-12-05T03:52:57.185Z,6.40
2022-12-05T03:55:32.694Z,6.40
2022-12-05T03:58:07.327Z,6.40
2022-12-05T04:00:39.828Z,6.40
2022-12-05T04:03:17.765Z,6.40
2022-12-05T04:06:01.631Z,6.40
2022-12-05T04:08:42.713Z,6.40
2022-12-05T04:11:19.794Z,6.40
2022-12-05T04:13:57.836Z,6.40
2022-12-05T04:16:49.756Z,6.40
2022-12-05T04:20:05.715Z,6.40
2022-12-05T04:22:33.305Z,6.40
2022-12-05T04:25:22.877Z,6.30
2022-12-05T04:28:29.843Z,6.40
2022-12-05T04:31:16.816Z,6.40
2022-12-05T04:33:47.973Z,6.40
2022-12-05T04:36:36.694Z,6.40
2022-12-05T04:39:18.064Z,6.40
2022-12-05T04:41:57.956Z,6.40
2022-12-05T04:44:34.713Z,6.40
2022-12-05T04:47:05.527Z,6.40
2022-12-05T04:49:35.738Z,6.40
2022-12-05T04:52:08.705Z,6.40
2022-12-05T04:54:47.211Z,6.40
2022-12-05T04:57:26.799Z,6.30
2022-12-05T04:59:53.923Z,6.30
2022-12-05T05:02:31.020Z,6.30
2022-12-05T05:05:00.460Z,6.40
2022-12-05T05:07:27.360Z,6.40
2022-12-05T05:09:55.741Z,6.40
2022-12-05T05:12:22.824Z,6.40
2022-12-05T05:14:50.144Z,6.40
2022-12-05T05:17:17.043Z,6.40
2022-12-05T05:19:43.939Z,6.40
2022-12-05T05:22:10.837Z,6.40
2022-12-05T05:24:37.719Z,6.40
2022-12-05T05:27:04.626Z,6.40
2022-12-05T05:29:31.485Z,6.40
2022-12-05T05:31:58.477Z,6.30
2022-12-05T05:34:28.465Z,6.30
2022-12-05T05:36:55.392Z,6.30
2022-12-05T05:39:22.818Z,6.30
2022-12-05T05:41:49.691Z,6.30
2022-12-05T05:44:16.560Z,6.30
2022-12-05T05:46:43.510Z,6.20
2022-12-05T05:49:10.646Z,6.20
2022-12-05T05:51:37.608Z,6.30
2022-12-05T05:54:04.574Z,6.30
2022-12-05T05:56:31.507Z,6.40
2022-12-05T05:59:02.140Z,6.40
2022-12-05T06:01:29.745Z,6.40
2022-12-05T06:03:57.253Z,6.50
2022-12-05T06:06:25.065Z,6.50
2022-12-05T06:08:51.967Z,6.50
2022-12-05T06:11:26.760Z,6.50
2022-12-05T06:14:02.839Z,6.50
2022-12-05T06:16:31.596Z,6.50
2022-12-05T06:18:59.026Z,6.50
2022-12-05T06:21:26.167Z,6.60
2022-12-05T06:23:53.883Z,6.50
2022-12-05T06:26:21.898Z,6.50
2022-12-05T06:28:49.379Z,6.50
2022-12-05T06:31:28.368Z,6.50
2022-12-05T06:33:55.344Z,6.50
2022-12-05T06:36:22.897Z,6.50
2022-12-05T06:38:49.832Z,6.60
2022-12-05T06:41:19.733Z,6.60
2022-12-05T06:43:47.527Z,6.60
2022-12-05T06:46:16.234Z,6.60
2022-12-05T06:48:43.290Z,6.60
2022-12-05T06:51:12.559Z,6.60
2022-12-05T06:53:40.202Z,6.60
2022-12-05T06:56:12.516Z,6.50
2022-12-05T06:58:49.935Z,6.50
2022-12-05T07:01:42.272Z,6.50
2022-12-05T07:04:24.378Z,6.40
2022-12-05T07:06:55.493Z,6.50
2022-12-05T07:09:45.853Z,6.50
2022-12-05T07:12:15.244Z,6.50
2022-12-05T07:14:48.043Z,6.50
2022-12-05T07:17:17.290Z,6.50
2022-12-05T07:19:44.192Z,6.50
2022-12-05T07:22:15.697Z,6.50
2022-12-05T07:24:44.557Z,6.50
2022-12-05T07:27:12.908Z,6.50
2022-12-05T07:29:39.820Z,6.50
2022-12-05T07:32:07.173Z,6.50
2022-12-05T07:34:34.168Z,6.50
2022-12-05T07:37:01.493Z,6.60
2022-12-05T07:39:28.493Z,6.60
2022-12-05T07:41:55.373Z,6.60
2022-12-05T07:44:22.236Z,6.50
2022-12-05T07:46:49.163Z,6.60
2022-12-05T07:49:16.267Z,6.60
2022-12-05T07:51:43.151Z,6.60
2022-12-05T07:54:10.074Z,6.60
2022-12-05T07:56:36.930Z,6.60
2022-12-05T07:59:03.787Z,6.70
2022-12-05T08:01:30.968Z,6.70
2022-12-05T08:03:59.852Z,6.70
2022-12-05T08:06:30.120Z,6.70
2022-12-05T08:08:57.882Z,6.70
2022-12-05T08:11:30.152Z,6.80
2022-12-05T08:13:58.112Z,6.70
2022-12-05T08:16:29.104Z,6.70
2022-12-05T08:19:02.964Z,6.70
2022-12-05T08:21:30.825Z,6.70
2022-12-05T08:23:58.006Z,6.70
2022-12-05T08:26:31.298Z,6.70
2022-12-05T08:29:02.046Z,6.70
2022-12-05T08:31:31.404Z,6.70
2022-12-05T08:34:00.035Z,6.70
2022-12-05T08:36:29.540Z,6.70
2022-12-05T08:38:59.311Z,6.70
2022-12-05T08:41:28.727Z,6.70
2022-12-05T08:44:10.292Z,6.70
2022-12-05T08:46:39.229Z,6.70
2022-12-05T08:49:06.745Z,6.80
2022-12-05T08:51:33.613Z,6.80
2022-12-05T08:54:03.220Z,6.80
2022-12-05T08:56:30.111Z,6.80
2022-12-05T08:59:04.450Z,6.80
2022-12-05T09:01:33.648Z,6.80
2022-12-05T09:04:02.408Z,6.80
2022-12-05T09:06:29.896Z,6.80
2022-12-05T09:08:59.920Z,6.80
2022-12-05T09:11:30.130Z,6.90
2022-12-05T09:13:58.721Z,6.80
2022-12-05T09:16:37.488Z,6.90
2022-12-05T09:19:17.055Z,6.90
2022-12-05T09:21:44.504Z,6.90
2022-12-05T09:24:12.825Z,6.90
2022-12-05T09:26:40.564Z,6.90
2022-12-05T09:29:11.340Z,6.90
2022-12-05T09:31:45.724Z,7.00
2022-12-05T09:34:14.166Z,7.00
2022-12-05T09:36:41.753Z,7.00
2022-12-05T09:39:08.643Z,7.00
2022-12-05T09:42:07.939Z,7.00
2022-12-05T09:45:17.906Z,7.10
2022-12-05T09:47:59.270Z,7.10
2022-12-05T09:50:29.068Z,7.10
2022-12-05T09:53:25.175Z,7.10
2022-12-05T09:55:59.088Z,7.10
2022-12-05T09:58:43.466Z,7.20
2022-12-05T10:01:42.500Z,7.20
2022-12-05T10:05:00.429Z,7.20
2022-12-05T10:07:54.157Z,7.10
2022-12-05T10:11:05.496Z,7.20
2022-12-05T10:13:41.398Z,7.20
2022-12-05T10:16:28.755Z,7.20
2022-12-05T10:19:07.185Z,7.20
2022-12-05T10:21:46.904Z,7.20
2022-12-05T10:24:21.106Z,7.30
2022-12-05T10:27:00.778Z,7.30
2022-12-05T10:29:33.927Z,7.30
2022-12-05T10:32:19.786Z,7.20
2022-12-05T10:34:47.221Z,7.30
2022-12-05T10:37:20.895Z,7.20
2022-12-05T10:39:49.935Z,7.20
2022-12-05T10:42:30.449Z,7.20
2022-12-05T10:45:04.481Z,7.20
2022-12-05T10:47:32.312Z,7.20
2022-12-05T10:50:27.747Z,7.30
2022-12-05T10:52:57.812Z,7.30
2022-12-05T10:55:37.811Z,7.40
2022-12-05T10:58:24.108Z,7.40
2022-12-05T11:01:07.964Z,7.40
2022-12-05T11:03:38.637Z,7.40
2022-12-05T11:06:25.885Z,7.40
2022-12-05T11:09:05.635Z,7.40
2022-12-05T11:11:33.727Z,7.40
2022-12-05T11:14:05.392Z,7.40
2022-12-05T11:16:35.312Z,7.40
2022-12-05T11:19:21.806Z,7.40
2022-12-05T11:21:50.532Z,7.40
2022-12-05T11:24:28.985Z,7.40
2022-12-05T11:26:58.993Z,7.50
2022-12-05T11:29:39.339Z,7.50
2022-12-05T11:32:19.680Z,7.50
2022-12-05T11:34:53.830Z,7.50
2022-12-05T11:37:45.028Z,7.50
2022-12-05T11:40:38.443Z,7.50
2022-12-05T11:43:24.212Z,7.50
2022-12-05T11:46:23.613Z,7.50
2022-12-05T11:49:17.494Z,7.60
2022-12-05T11:52:25.065Z,7.50
2022-12-05T11:55:16.261Z,7.60
2022-12-05T11:58:05.032Z,7.60
2022-12-05T12:00:43.798Z,7.60
2022-12-05T12:03:45.461Z,7.60
2022-12-05T12:06:59.489Z,7.60
2022-12-05T12:09:49.795Z,7.60
2022-12-05T12:12:36.089Z,7.60
2022-12-05T12:15:43.319Z,7.60
2022-12-05T12:18:53.842Z,7.60
2022-12-05T12:21:59.322Z,7.60
2022-12-05T12:25:42.030Z,7.50
2022-12-05T12:28:45.686Z,7.50
2022-12-05T12:31:12.517Z,7.60
2022-12-05T12:34:04.247Z,7.50
2022-12-05T12:36:56.011Z,7.50
2022-12-05T12:39:51.683Z,7.50
2022-12-05T12:42:27.128Z,7.50
2022-12-05T12:45:21.531Z,7.50
2022-12-05T12:48:12.601Z,7.50
2022-12-05T12:50:44.954Z,7.50
2022-12-05T12:54:04.513Z,7.50
2022-12-05T12:57:32.149Z,7.50
2022-12-05T13:00:22.765Z,7.50
2022-12-05T13:03:00.506Z,7.50
2022-12-05T13:05:50.484Z,7.50
2022-12-05T13:08:41.136Z,7.60
2022-12-05T13:11:14.345Z,7.60
2022-12-05T13:13:48.733Z,7.60
2022-12-05T13:16:27.799Z,7.60
2022-12-05T13:18:56.473Z,7.60
2022-12-05T13:21:24.573Z,7.60
2022-12-05T13:23:55.915Z,7.60
2022-12-05T13:26:23.996Z,7.60
2022-12-05T13:29:01.065Z,7.60
2022-12-05T13:31:41.756Z,7.60
2022-12-05T13:34:27.192Z,7.60
2022-12-05T13:37:13.480Z,7.60
2022-12-05T13:39:59.405Z,7.60
2022-12-05T13:42:30.371Z,7.50
2022-12-05T13:45:04.626Z,7.50
2022-12-05T13:48:01.735Z,7.50
2022-12-05T13:50:56.943Z,7.50
2022-12-05T13:53:45.608Z,7.50
2022-12-05T13:56:15.394Z,7.50
2022-12-05T13:58:53.183Z,7.40
2022-12-05T14:01:26.195Z,7.40
2022-12-05T14:04:02.207Z,7.40
2022-12-05T14:06:40.620Z,7.40
2022-12-05T14:09:19.535Z,7.40
2022-12-05T14:12:11.192Z,7.50
2022-12-05T14:14:56.787Z,7.40
2022-12-05T14:17:26.333Z,7.40
2022-12-05T14:20:22.779Z,7.40
2022-12-05T14:23:16.581Z,7.30
2022-12-05T14:26:15.050Z,7.40
2022-12-05T14:28:55.136Z,7.40
2022-12-05T14:31:40.439Z,7.40
2022-12-05T14:34:17.964Z,7.40
2022-12-05T14:37:16.426Z,7.40
2022-12-05T14:39:52.066Z,7.40
2022-12-05T14:42:30.950Z,7.40
2022-12-05T14:45:01.126Z,7.40
2022-12-05T14:47:33.641Z,7.50
2022-12-05T14:50:34.948Z,7.50
2022-12-05T14:53:15.493Z,7.50
2022-12-05T14:55:47.846Z,7.50
2022-12-05T14:58:27.100Z,7.50
2022-12-05T15:01:01.140Z,7.50
2022-12-05T15:03:34.709Z,7.50
2022-12-05T15:06:06.009Z,7.50
2022-12-05T15:08:45.314Z,7.50
2022-12-05T15:11:29.531Z,7.50
2022-12-05T15:14:08.613Z,7.50
2022-12-05T15:16:44.014Z,7.50
2022-12-05T15:19:23.195Z,7.50
2022-12-05T15:21:57.042Z,7.50
2022-12-05T15:24:24.197Z,7.50
2022-12-05T15:26:55.203Z,7.50
2022-12-05T15:29:28.157Z,7.50
2022-12-05T15:31:59.555Z,7.40
2022-12-05T15:35:01.651Z,7.40
2022-12-05T15:37:35.200Z,7.40
2022-12-05T15:40:08.335Z,7.40
2022-12-05T15:42:45.965Z,7.40
2022-12-05T15:45:15.792Z,7.40
2022-12-05T15:48:12.075Z,7.40
2022-12-05T15:50:42.640Z,7.40
2022-12-05T15:53:36.093Z,7.40
2022-12-05T15:56:32.385Z,7.50
2022-12-05T15:59:47.240Z,7.40
2022-12-05T16:02:22.981Z,7.50
2022-12-05T16:04:56.944Z,7.50
2022-12-05T16:07:27.495Z,7.50
2022-12-05T16:09:58.249Z,7.50
2022-12-05T16:12:30.884Z,7.50
2022-12-05T16:15:03.961Z,7.50
2022-12-05T16:17:42.306Z,7.50
2022-12-05T16:20:36.661Z,7.50
2022-12-05T16:23:11.312Z,7.50
2022-12-05T16:25:38.250Z,7.50
2022-12-05T16:28:08.014Z,7.50
2022-12-05T16:30:37.312Z,7.50
2022-12-05T16:33:08.795Z,7.50
2022-12-05T16:35:47.477Z,7.50
2022-12-05T16:38:16.900Z,7.50
2022-12-05T16:40:46.798Z,7.50
2022-12-05T16:43:33.162Z,7.50
2022-12-05T16:46:13.861Z,7.50
2022-12-05T16:49:14.978Z,7.60
2022-12-05T16:51:45.289Z,7.50
2022-12-05T16:54:12.162Z,7.50
2022-12-05T16:56:39.659Z,7.60
2022-12-05T16:59:13.988Z,7.50
2022-12-05T17:01:40.917Z,7.50
2022-12-05T17:04:11.206Z,7.60
2022-12-05T17:06:39.285Z,7.60
2022-12-05T17:09:06.211Z,7.50
2022-12-05T17:11:37.116Z,7.60
2022-12-05T17:14:04.188Z,7.60
2022-12-05T17:16:31.242Z,7.60
2022-12-05T17:18:58.228Z,7.60
2022-12-05T17:21:29.998Z,7.60
2022-12-05T17:23:58.229Z,7.60
2022-12-05T17:26:25.215Z,7.60
2022-12-05T17:28:52.103Z,7.60
2022-12-05T17:31:22.478Z,7.60
2022-12-05T17:33:50.703Z,7.60
2022-12-05T17:36:20.549Z,7.60
2022-12-05T17:38:47.809Z,7.60
2022-12-05T17:41:23.783Z,7.60
2022-12-05T17:43:51.473Z,7.70
2022-12-05T17:46:21.968Z,7.70
2022-12-05T17:48:50.356Z,7.70
2022-12-05T17:51:17.595Z,7.60
2022-12-05T17:53:45.390Z,7.60
2022-12-05T17:56:12.923Z,7.60
2022-12-05T17:58:40.307Z,7.60
2022-12-05T18:01:08.032Z,7.60
2022-12-05T18:03:35.127Z,7.70
2022-12-05T18:06:05.101Z,7.60
2022-12-05T18:08:32.023Z,7.60
2022-12-05T18:10:58.895Z,7.60
2022-12-05T18:13:25.816Z,7.60
2022-12-05T18:15:58.096Z,7.60
2022-12-05T18:18:27.382Z,7.60
2022-12-05T18:21:11.942Z,7.60
2022-12-05T18:23:39.754Z,7.60
2022-12-05T18:26:09.251Z,7.60
2022-12-05T18:28:38.444Z,7.60
2022-12-05T18:31:16.882Z,7.60
2022-12-05T18:33:45.786Z,7.60
2022-12-05T18:36:21.039Z,7.60
2022-12-05T18:38:53.844Z,7.60
2022-12-05T18:41:23.384Z,7.60
2022-12-05T18:43:50.654Z,7.60
2022-12-05T18:46:17.669Z,7.60
2022-12-05T18:48:47.783Z,7.60
2022-12-05T18:51:21.905Z,7.50
2022-12-05T18:53:52.382Z,7.60
2022-12-05T18:56:29.505Z,7.60
2022-12-05T18:58:59.823Z,7.60
2022-12-05T19:01:27.913Z,7.60
2022-12-05T19:03:57.173Z,7.50
2022-12-05T19:06:28.041Z,7.60
2022-12-05T19:09:03.463Z,7.60
2022-12-05T19:11:30.438Z,7.60
2022-12-05T19:14:02.421Z,7.60
2022-12-05T19:16:31.675Z,7.50
2022-12-05T19:19:01.237Z,7.60
2022-12-05T19:21:31.608Z,7.60
2022-12-05T19:23:59.279Z,7.60
2022-12-05T19:26:26.561Z,7.60
2022-12-05T19:28:53.916Z,7.60
2022-12-05T19:31:24.673Z,7.60
2022-12-05T19:33:55.002Z,7.60
2022-12-05T19:36:28.750Z,7.60
2022-12-05T19:38:56.632Z,7.60
2022-12-05T19:41:27.685Z,7.60
2022-12-05T19:43:58.971Z,7.60
2022-12-05T19:46:29.700Z,7.60
2022-12-05T19:48:58.775Z,7.60
2022-12-05T19:51:27.331Z,7.60
2022-12-05T19:53:54.382Z,7.60
2022-12-05T19:56:24.227Z,7.60
2022-12-05T19:58:53.026Z,7.60
2022-12-05T20:01:27.923Z,7.60
2022-12-05T20:03:59.195Z,7.60
2022-12-05T20:06:29.966Z,7.60
2022-12-05T20:08:58.858Z,7.60
2022-12-05T20:11:26.649Z,7.60
2022-12-05T20:13:56.135Z,7.70
2022-12-05T20:16:26.693Z,7.60
2022-12-05T20:19:00.554Z,7.70
2022-12-05T20:21:30.912Z,7.70
2022-12-05T20:24:00.752Z,7.70
2022-12-05T20:26:31.448Z,7.70
2022-12-05T20:28:59.708Z,7.70
2022-12-05T20:31:35.931Z,7.70
2022-12-05T20:34:04.040Z,7.70
2022-12-05T20:36:33.266Z,7.70
2022-12-05T20:39:10.135Z,7.70
2022-12-05T20:41:37.044Z,7.80
2022-12-05T20:44:07.230Z,7.70
2022-12-05T20:46:35.316Z,7.80
2022-12-05T20:49:02.313Z,7.70
2022-12-05T20:51:32.901Z,7.80
2022-12-05T20:54:02.449Z,7.80
2022-12-05T20:56:34.292Z,7.70
2022-12-05T20:59:04.564Z,7.80
2022-12-05T21:01:34.670Z,7.80
2022-12-05T21:04:02.701Z,7.70
2022-12-05T21:06:32.779Z,7.80
2022-12-05T21:09:01.055Z,7.80
2022-12-05T21:11:29.206Z,7.80
2022-12-05T21:14:00.088Z,7.80
2022-12-05T21:16:28.069Z,7.80
2022-12-05T21:18:56.048Z,7.80
2022-12-05T21:21:26.071Z,7.80
2022-12-05T21:23:59.262Z,7.80
2022-12-05T21:26:29.866Z,7.80
2022-12-05T21:28:57.875Z,7.80
2022-12-05T21:31:33.572Z,7.80
2022-12-05T21:34:07.209Z,7.90
2022-12-05T21:36:36.113Z,7.80
2022-12-05T21:39:03.701Z,7.90
2022-12-05T21:41:30.582Z,7.90
2022-12-05T21:43:57.454Z,7.90
2022-12-05T21:46:25.654Z,7.90
2022-12-05T21:48:53.077Z,7.80
2022-12-05T21:51:20.691Z,7.80
2022-12-05T21:53:48.184Z,7.90
2022-12-05T21:56:18.322Z,7.80
2022-12-05T21:58:46.791Z,7.80
2022-12-05T22:01:19.785Z,7.90
2022-12-05T22:03:47.057Z,7.90
2022-12-05T22:06:15.337Z,7.90
2022-12-05T22:08:42.506Z,7.90
2022-12-05T22:11:14.858Z,7.90
2022-12-05T22:13:43.151Z,7.90
2022-12-05T22:16:10.575Z,7.90
2022-12-05T22:18:37.979Z,7.90
2022-12-05T22:21:18.247Z,7.90
2022-12-05T22:23:45.675Z,7.90
2022-12-05T22:26:19.582Z,8.00
2022-12-05T22:28:46.519Z,7.90
2022-12-05T22:31:15.792Z,7.90
2022-12-05T22:33:44.781Z,8.00
2022-12-05T22:36:14.966Z,7.90
2022-12-05T22:38:44.890Z,7.90
2022-12-05T22:41:17.522Z,7.90
2022-12-05T22:43:46.885Z,7.90
2022-12-05T22:46:20.165Z,8.00
2022-12-05T22:48:49.603Z,8.00
2022-12-05T22:51:18.768Z,7.90
2022-12-05T22:53:46.311Z,7.90
2022-12-05T22:56:16.332Z,8.00
2022-12-05T22:58:45.112Z,7.90
2022-12-05T23:01:21.547Z,7.90
2022-12-05T23:03:53.802Z,7.90
2022-12-05T23:06:20.734Z,7.90
2022-12-05T23:08:48.282Z,7.90
2022-12-05T23:11:16.729Z,7.90
2022-12-05T23:13:44.119Z,7.90
2022-12-05T23:16:23.433Z,7.90
2022-12-05T23:18:53.553Z,7.90
2022-12-05T23:21:29.642Z,7.80
2022-12-05T23:24:00.250Z,7.90
2022-12-05T23:26:32.710Z,7.80
2022-12-05T23:28:59.598Z,7.90
2022-12-05T23:31:26.526Z,7.80
2022-12-05T23:33:57.228Z,7.90
2022-12-05T23:36:28.295Z,7.90
2022-12-05T23:38:55.357Z,7.80
2022-12-05T23:41:24.108Z,7.80
2022-12-05T23:43:52.015Z,7.80
2022-12-05T23:46:22.669Z,7.90
2022-12-05T23:48:50.465Z,7.80
2022-12-05T23:51:29.470Z,7.90
2022-12-05T23:53:59.556Z,7.80
2022-12-05T23:56:30.386Z,7.90
2022-12-05T23:58:57.814Z,7.90
